createdAt,value
2023-10-27T00:01:30.471Z,8.60
2023-10-27T00:03:57.439Z,8.60
2023-10-27T00:06:24.633Z,8.60
2023-10-27T00:08:51.602Z,8.60
2023-10-27T00:11:18.570Z,8.60
2023-10-27T00:13:45.509Z,8.60
2023-10-27T00:16:13.269Z,8.60
2023-10-27T00:18:40.298Z,8.60
2023-10-27T00:21:07.279Z,8.60
2023-10-27T00:23:34.188Z,8.60
2023-10-27T00:26:02.408Z,8.60
2023-10-27T00:28:30.302Z,8.60
2023-10-27T00:30:57.301Z,8.60
2023-10-27T00:33:24.452Z,8.60
2023-10-27T00:35:55.270Z,8.60
2023-10-27T00:38:22.626Z,8.60
2023-10-27T00:40:50.275Z,8.60
2023-10-27T00:43:18.265Z,8.60
2023-10-27T00:45:50.782Z,8.60
2023-10-27T00:48:18.929Z,8.60
2023-10-27T00:50:48.451Z,8.60
2023-10-27T00:53:18.515Z,8.60
2023-10-27T00:55:45.902Z,8.60
2023-10-27T00:58:13.539Z,8.60
2023-10-27T01:00:40.746Z,8.60
2023-10-27T01:03:07.865Z,8.60
2023-10-27T01:05:38.374Z,8.60
2023-10-27T01:08:05.398Z,8.60
2023-10-27T01:10:32.435Z,8.60
2023-10-27T01:12:59.316Z,8.60
2023-10-27T01:15:26.219Z,8.60
2023-10-27T01:17:53.233Z,8.60
2023-10-27T01:20:20.341Z,8.60
2023-10-27T01:22:50.911Z,8.60
2023-10-27T01:25:18.281Z,8.60
2023-10-27T01:27:45.747Z,8.60
2023-10-27T01:30:12.892Z,8.60
2023-10-27T01:32:44.878Z,8.60
2023-10-27T01:35:12.186Z,8.60
2023-10-27T01:37:39.189Z,8.60
2023-10-27T01:40:06.596Z,8.60
2023-10-27T01:42:35.954Z,8.60
2023-10-27T01:45:06.492Z,8.60
2023-10-27T01:47:34.088Z,8.60
2023-10-27T01:50:01.389Z,8.60
2023-10-27T01:52:28.186Z,8.60
2023-10-27T01:54:55.161Z,8.60
2023-10-27T01:57:25.328Z,8.60
2023-10-27T01:59:52.748Z,8.60
2023-10-27T02:02:20.873Z,8.60
2023-10-27T02:04:47.882Z,8.60
2023-10-27T02:07:16.273Z,8.60
2023-10-27T02:10:06.995Z,8.60
2023-10-27T02:12:34.015Z,8.60
2023-10-27T02:15:00.764Z,8.60
2023-10-27T02:17:28.553Z,8.50
2023-10-27T02:19:58.419Z,8.60
2023-10-27T02:22:25.676Z,8.50
2023-10-27T02:24:52.682Z,8.60
2023-10-27T02:27:19.594Z,8.50
2023-10-27T02:29:46.722Z,8.60
2023-10-27T02:32:13.518Z,8.60
2023-10-27T02:34:40.335Z,8.60
2023-10-27T02:37:07.363Z,8.60
2023-10-27T02:39:34.265Z,8.60
2023-10-27T02:42:01.385Z,8.60
2023-10-27T02:44:28.161Z,8.60
2023-10-27T02:46:55.328Z,8.60
2023-10-27T02:49:22.202Z,8.60
2023-10-27T02:51:49.410Z,8.60
2023-10-27T02:54:16.276Z,8.60
2023-10-27T02:56:43.090Z,8.60
2023-10-27T02:59:10.462Z,8.60
2023-10-27T03:01:37.521Z,8.60
2023-10-27T03:04:04.649Z,8.60
2023-10-27T03:06:31.525Z,8.50
2023-10-27T03:08:58.293Z,8.50
2023-10-27T03:11:25.186Z,8.50
2023-10-27T03:13:51.937Z,8.50
2023-10-27T03:16:18.919Z,8.50
2023-10-27T03:18:46.000Z,8.50
2023-10-27T03:21:12.846Z,8.50
2023-10-27T03:23:39.710Z,8.50
2023-10-27T03:26:06.480Z,8.50
2023-10-27T03:28:33.674Z,8.50
2023-10-27T03:31:00.734Z,8.50
2023-10-27T03:33:27.703Z,8.50
2023-10-27T03:35:54.577Z,8.50
2023-10-27T03:38:21.380Z,8.50
2023-10-27T03:40:50.117Z,8.50
2023-10-27T03:43:17.934Z,8.50
2023-10-27T03:45:44.788Z,8.50
2023-10-27T03:48:11.671Z,8.50
2023-10-27T03:50:38.638Z,8.50
2023-10-27T03:53:05.694Z,8.50
2023-10-27T03:55:32.836Z,8.50
2023-10-27T03:58:16.172Z,8.50
2023-10-27T04:00:44.074Z,8.50
2023-10-27T04:03:13.958Z,8.50
2023-10-27T04:05:41.144Z,8.50
2023-10-27T04:08:08.392Z,8.50
2023-10-27T04:10:38.649Z,8.50
2023-10-27T04:13:06.086Z,8.50
2023-10-27T04:15:33.116Z,8.50
2023-10-27T04:18:01.500Z,8.50
2023-10-27T04:20:28.672Z,8.50
2023-10-27T04:22:55.582Z,8.50
2023-10-27T04:25:24.723Z,8.50
2023-10-27T04:27:51.688Z,8.50
2023-10-27T04:30:19.083Z,8.50
2023-10-27T04:32:47.494Z,8.50
2023-10-27T04:35:14.889Z,8.50
2023-10-27T04:37:41.943Z,8.50
2023-10-27T04:40:09.432Z,8.50
2023-10-27T04:42:36.474Z,8.40
2023-10-27T04:45:03.707Z,8.40
2023-10-27T04:47:30.618Z,8.40
2023-10-27T04:49:57.449Z,8.40
2023-10-27T04:52:24.319Z,8.40
2023-10-27T04:54:51.205Z,8.40
2023-10-27T04:57:18.144Z,8.40
2023-10-27T04:59:45.146Z,8.40
2023-10-27T05:02:12.058Z,8.40
2023-10-27T05:04:39.002Z,8.40
2023-10-27T05:07:07.013Z,8.40
2023-10-27T05:09:34.103Z,8.40
2023-10-27T05:12:02.228Z,8.40
2023-10-27T05:14:29.246Z,8.40
2023-10-27T05:16:56.226Z,8.40
2023-10-27T05:19:23.396Z,8.30
2023-10-27T05:21:50.423Z,8.30
2023-10-27T05:24:17.198Z,8.30
2023-10-27T05:26:44.202Z,8.30
2023-10-27T05:29:11.333Z,8.20
2023-10-27T05:31:39.363Z,8.20
2023-10-27T05:34:06.200Z,8.20
2023-10-27T05:36:33.177Z,8.20
2023-10-27T05:38:59.934Z,8.20
2023-10-27T05:41:26.735Z,8.10
2023-10-27T05:43:55.682Z,8.10
2023-10-27T05:46:22.650Z,8.20
2023-10-27T05:48:50.868Z,8.20
2023-10-27T05:51:18.721Z,8.10
2023-10-27T05:53:45.910Z,8.20
2023-10-27T05:56:12.887Z,8.20
2023-10-27T05:58:39.680Z,8.10
2023-10-27T06:01:06.733Z,8.10
2023-10-27T06:03:33.678Z,8.10
2023-10-27T06:06:00.548Z,8.10
2023-10-27T06:08:27.451Z,8.20
2023-10-27T06:10:54.334Z,8.10
2023-10-27T06:13:21.193Z,8.20
2023-10-27T06:15:48.053Z,8.10
2023-10-27T06:18:15.289Z,8.10
2023-10-27T06:20:42.335Z,8.10
2023-10-27T06:23:09.123Z,8.10
2023-10-27T06:25:35.947Z,8.10
2023-10-27T06:28:02.888Z,8.10
2023-10-27T06:30:29.804Z,8.10
2023-10-27T06:32:56.965Z,8.10
2023-10-27T06:35:25.310Z,8.10
2023-10-27T06:37:52.367Z,8.20
2023-10-27T06:40:19.890Z,8.10
2023-10-27T06:42:47.565Z,8.20
2023-10-27T06:45:14.462Z,8.20
2023-10-27T06:47:41.652Z,8.20
2023-10-27T06:50:09.309Z,8.20
2023-10-27T06:52:36.580Z,8.20
2023-10-27T06:55:04.480Z,8.20
2023-10-27T06:57:31.540Z,8.10
2023-10-27T06:59:58.386Z,8.20
2023-10-27T07:02:25.330Z,8.10
2023-10-27T07:04:52.896Z,8.10
2023-10-27T07:07:27.940Z,8.10
2023-10-27T07:09:56.547Z,8.10
2023-10-27T07:12:24.193Z,8.10
2023-10-27T07:14:51.207Z,8.10
2023-10-27T07:17:18.159Z,8.10
2023-10-27T07:19:47.912Z,8.20
2023-10-27T07:22:15.410Z,8.20
2023-10-27T07:24:42.219Z,8.20
2023-10-27T07:27:09.003Z,8.20
2023-10-27T07:29:35.858Z,8.20
2023-10-27T07:32:02.728Z,8.20
2023-10-27T07:34:29.909Z,8.20
2023-10-27T07:36:56.832Z,8.20
2023-10-27T07:39:26.576Z,8.20
2023-10-27T07:41:53.537Z,8.30
2023-10-27T07:44:20.439Z,8.30
2023-10-27T07:46:48.226Z,8.30
2023-10-27T07:49:15.248Z,8.30
2023-10-27T07:51:42.091Z,8.30
2023-10-27T07:54:09.014Z,8.40
2023-10-27T07:56:35.895Z,8.40
2023-10-27T07:59:02.799Z,8.40
2023-10-27T08:01:29.622Z,8.50
2023-10-27T08:03:57.322Z,8.50
2023-10-27T08:06:24.605Z,8.50
2023-10-27T08:08:51.424Z,8.50
2023-10-27T08:11:21.719Z,8.50
2023-10-27T08:13:48.606Z,8.50
2023-10-27T08:16:15.520Z,8.50
2023-10-27T08:18:42.630Z,8.60
2023-10-27T08:21:09.945Z,8.60
2023-10-27T08:23:37.042Z,8.60
2023-10-27T08:26:04.509Z,8.60
2023-10-27T08:28:31.365Z,8.60
2023-10-27T08:30:58.335Z,8.70
2023-10-27T08:33:26.105Z,8.70
2023-10-27T08:35:52.928Z,8.70
2023-10-27T08:38:19.851Z,8.70
2023-10-27T08:40:46.801Z,8.70
2023-10-27T08:43:13.871Z,8.80
2023-10-27T08:45:42.291Z,8.90
2023-10-27T08:48:11.048Z,8.90
2023-10-27T08:50:41.512Z,9.00
2023-10-27T08:53:14.730Z,9.10
2023-10-27T08:55:42.868Z,9.10
2023-10-27T08:58:09.885Z,9.10
2023-10-27T09:00:37.791Z,9.10
2023-10-27T09:03:17.674Z,9.10
2023-10-27T09:05:45.270Z,9.10
2023-10-27T09:08:12.640Z,9.10
2023-10-27T09:10:40.067Z,9.00
2023-10-27T09:13:07.148Z,9.00
2023-10-27T09:15:48.049Z,9.00
2023-10-27T09:18:15.113Z,9.00
2023-10-27T09:20:53.908Z,9.00
2023-10-27T09:23:21.536Z,9.10
2023-10-27T09:25:49.035Z,9.10
2023-10-27T09:28:27.858Z,9.10
2023-10-27T09:30:54.799Z,9.00
2023-10-27T09:33:27.554Z,9.00
2023-10-27T09:35:54.780Z,9.00
2023-10-27T09:38:23.537Z,9.00
2023-10-27T09:40:51.021Z,9.00
2023-10-27T09:43:22.732Z,9.00
2023-10-27T09:45:54.741Z,8.90
2023-10-27T09:48:27.583Z,8.90
2023-10-27T09:51:02.047Z,8.90
2023-10-27T09:53:29.827Z,8.90
2023-10-27T09:55:59.233Z,8.80
2023-10-27T09:58:32.305Z,8.80
2023-10-27T10:01:00.126Z,8.80
2023-10-27T10:03:30.030Z,8.80
2023-10-27T10:06:18.957Z,8.90
2023-10-27T10:09:12.728Z,8.90
2023-10-27T10:11:48.596Z,8.80
2023-10-27T10:14:51.449Z,8.90
2023-10-27T10:17:41.076Z,8.90
2023-10-27T10:20:10.407Z,8.80
2023-10-27T10:22:43.130Z,8.80
2023-10-27T10:25:16.441Z,8.80
2023-10-27T10:28:17.821Z,8.80
2023-10-27T10:30:46.040Z,8.80
2023-10-27T10:33:16.055Z,8.80
2023-10-27T10:35:53.302Z,8.80
2023-10-27T10:38:23.175Z,8.80
2023-10-27T10:40:50.681Z,8.80
2023-10-27T10:43:38.039Z,8.80
2023-10-27T10:46:06.499Z,8.80
2023-10-27T10:48:41.053Z,8.80
2023-10-27T10:51:16.242Z,8.80
2023-10-27T10:53:45.353Z,8.80
2023-10-27T10:56:12.237Z,8.80
2023-10-27T10:58:41.538Z,8.80
2023-10-27T11:01:16.893Z,8.80
2023-10-27T11:04:02.006Z,8.80
2023-10-27T11:06:30.612Z,8.80
2023-10-27T11:08:57.709Z,8.80
2023-10-27T11:11:35.038Z,8.80
2023-10-27T11:14:11.623Z,8.80
2023-10-27T11:16:38.836Z,8.80
2023-10-27T11:19:15.337Z,8.80
2023-10-27T11:21:42.217Z,8.90
2023-10-27T11:24:09.587Z,8.90
2023-10-27T11:26:43.989Z,8.90
2023-10-27T11:29:10.851Z,9.00
2023-10-27T11:31:41.726Z,9.00
2023-10-27T11:34:10.393Z,9.00
2023-10-27T11:36:45.321Z,9.00
2023-10-27T11:39:17.254Z,9.00
2023-10-27T11:41:56.174Z,9.10
2023-10-27T11:44:23.384Z,9.00
2023-10-27T11:46:55.955Z,9.00
2023-10-27T11:49:23.692Z,9.00
2023-10-27T11:51:53.689Z,9.10
2023-10-27T11:54:21.399Z,9.10
2023-10-27T11:56:49.051Z,9.10
2023-10-27T11:59:18.400Z,9.10
2023-10-27T12:01:46.502Z,9.10
2023-10-27T12:04:13.785Z,9.10
2023-10-27T12:06:41.801Z,9.10
2023-10-27T12:09:09.729Z,9.10
2023-10-27T12:11:37.225Z,9.20
2023-10-27T12:14:04.530Z,9.20
2023-10-27T12:16:31.686Z,9.20
2023-10-27T12:18:58.683Z,9.20
2023-10-27T12:21:26.912Z,9.20
2023-10-27T12:23:54.699Z,9.30
2023-10-27T12:26:22.302Z,9.30
2023-10-27T12:28:49.675Z,9.30
2023-10-27T12:31:17.443Z,9.30
2023-10-27T12:33:47.450Z,9.30
2023-10-27T12:36:14.724Z,9.40
2023-10-27T12:38:42.565Z,9.40
2023-10-27T12:41:10.821Z,9.40
2023-10-27T12:43:37.925Z,9.40
2023-10-27T12:46:05.952Z,9.40
2023-10-27T12:48:34.133Z,9.50
2023-10-27T12:51:02.460Z,9.40
2023-10-27T12:53:29.811Z,9.40
2023-10-27T12:55:57.407Z,9.40
2023-10-27T12:58:25.002Z,9.40
2023-10-27T13:00:52.431Z,9.40
2023-10-27T13:03:19.774Z,9.40
2023-10-27T13:05:46.776Z,9.40
2023-10-27T13:08:13.958Z,9.40
2023-10-27T13:10:41.314Z,9.40
2023-10-27T13:13:08.377Z,9.40
2023-10-27T13:15:35.855Z,9.50
2023-10-27T13:18:15.270Z,9.50
2023-10-27T13:20:42.480Z,9.50
2023-10-27T13:23:10.440Z,9.50
2023-10-27T13:25:37.489Z,9.50
2023-10-27T13:28:04.962Z,9.50
2023-10-27T13:30:32.055Z,9.50
2023-10-27T13:32:59.218Z,9.50
2023-10-27T13:35:26.376Z,9.50
2023-10-27T13:37:55.055Z,9.50
2023-10-27T13:40:22.123Z,9.50
2023-10-27T13:42:49.047Z,9.50
2023-10-27T13:45:16.797Z,9.50
2023-10-27T13:47:44.172Z,9.50
2023-10-27T13:50:12.569Z,9.50
2023-10-27T13:52:40.011Z,9.40
2023-10-27T13:55:09.836Z,9.50
2023-10-27T13:57:36.944Z,9.40
2023-10-27T14:00:04.605Z,9.40
2023-10-27T14:02:31.647Z,9.40
2023-10-27T14:04:58.638Z,9.40
2023-10-27T14:07:26.396Z,9.40
2023-10-27T14:09:54.119Z,9.40
2023-10-27T14:12:21.057Z,9.30
2023-10-27T14:14:47.915Z,9.30
2023-10-27T14:17:16.790Z,9.30
2023-10-27T14:19:43.681Z,9.30
2023-10-27T14:22:10.513Z,9.30
2023-10-27T14:24:37.332Z,9.20
2023-10-27T14:27:06.656Z,9.20
2023-10-27T14:29:33.556Z,9.20
2023-10-27T14:32:00.435Z,9.10
2023-10-27T14:34:28.846Z,9.10
2023-10-27T14:36:55.681Z,9.10
2023-10-27T14:39:22.537Z,9.10
2023-10-27T14:41:49.352Z,9.00
2023-10-27T14:44:16.198Z,9.00
2023-10-27T14:46:43.626Z,9.00
2023-10-27T14:49:10.693Z,9.00
2023-10-27T14:51:37.626Z,8.90
2023-10-27T14:54:04.534Z,8.90
2023-10-27T14:56:31.346Z,8.90
2023-10-27T14:58:58.184Z,8.90
2023-10-27T15:01:26.209Z,8.90
2023-10-27T15:03:53.999Z,8.90
2023-10-27T15:06:21.117Z,8.80
2023-10-27T15:08:47.968Z,8.80
2023-10-27T15:11:15.107Z,8.80
2023-10-27T15:13:42.408Z,8.80
2023-10-27T15:16:38.115Z,8.70
2023-10-27T15:19:05.477Z,8.70
2023-10-27T15:21:33.295Z,8.70
2023-10-27T15:24:00.296Z,8.70
2023-10-27T15:26:27.468Z,8.70
2023-10-27T15:28:54.801Z,8.70
2023-10-27T15:31:25.200Z,8.70
2023-10-27T15:33:53.077Z,8.70
2023-10-27T15:36:20.246Z,8.70
2023-10-27T15:38:47.343Z,8.60
2023-10-27T15:41:42.212Z,8.60
2023-10-27T15:44:09.399Z,8.60
2023-10-27T15:46:36.670Z,8.60
2023-10-27T15:49:04.506Z,8.60
2023-10-27T15:51:31.459Z,8.60
2023-10-27T15:54:00.036Z,8.60
2023-10-27T15:56:30.110Z,8.60
2023-10-27T15:58:59.586Z,8.50
2023-10-27T16:01:26.578Z,8.50
2023-10-27T16:03:53.592Z,8.50
2023-10-27T16:06:21.110Z,8.50
2023-10-27T16:08:47.997Z,8.50
2023-10-27T16:11:15.487Z,8.50
2023-10-27T16:13:44.038Z,8.50
2023-10-27T16:16:11.970Z,8.40
2023-10-27T16:18:39.216Z,8.40
2023-10-27T16:21:06.257Z,8.40
2023-10-27T16:23:33.116Z,8.40
2023-10-27T16:26:05.533Z,8.40
2023-10-27T16:28:33.094Z,8.40
2023-10-27T16:31:04.000Z,8.40
2023-10-27T16:33:32.421Z,8.40
2023-10-27T16:36:03.173Z,8.40
2023-10-27T16:38:30.088Z,8.40
2023-10-27T16:40:58.381Z,8.40
2023-10-27T16:43:25.542Z,8.40
2023-10-27T16:45:52.621Z,8.40
2023-10-27T16:48:19.834Z,8.40
2023-10-27T16:50:46.728Z,8.40
2023-10-27T16:53:13.583Z,8.30
2023-10-27T16:55:40.441Z,8.30
2023-10-27T16:58:07.318Z,8.30
2023-10-27T17:00:34.172Z,8.30
2023-10-27T17:03:02.510Z,8.30
2023-10-27T17:05:30.295Z,8.30
2023-10-27T17:07:58.783Z,8.30
2023-10-27T17:10:25.957Z,8.30
2023-10-27T17:12:53.150Z,8.30
2023-10-27T17:15:20.100Z,8.30
2023-10-27T17:17:47.046Z,8.30
2023-10-27T17:20:17.393Z,8.30
2023-10-27T17:22:46.167Z,8.30
2023-10-27T17:25:13.437Z,8.30
2023-10-27T17:27:40.360Z,8.30
2023-10-27T17:30:10.999Z,8.30
2023-10-27T17:32:41.699Z,8.30
2023-10-27T17:35:08.942Z,8.30
2023-10-27T17:37:36.147Z,8.30
2023-10-27T17:40:03.631Z,8.30
2023-10-27T17:42:34.441Z,8.30
2023-10-27T17:45:01.912Z,8.30
2023-10-27T17:47:29.166Z,8.20
2023-10-27T17:49:57.685Z,8.30
2023-10-27T17:52:24.723Z,8.20
2023-10-27T17:54:51.720Z,8.20
2023-10-27T17:57:20.940Z,8.20
2023-10-27T17:59:48.006Z,8.20
2023-10-27T18:02:14.821Z,8.20
2023-10-27T18:04:41.990Z,8.30
2023-10-27T18:07:09.837Z,8.20
2023-10-27T18:09:37.973Z,8.20
2023-10-27T18:12:06.767Z,8.30
2023-10-27T18:14:33.708Z,8.20
2023-10-27T18:17:02.039Z,8.20
2023-10-27T18:19:29.060Z,8.20
2023-10-27T18:21:57.299Z,8.30
2023-10-27T18:24:24.350Z,8.30
2023-10-27T18:26:51.286Z,8.20
2023-10-27T18:29:18.277Z,8.20
2023-10-27T18:31:48.937Z,8.20
2023-10-27T18:34:16.088Z,8.30
2023-10-27T18:36:44.136Z,8.20
2023-10-27T18:39:11.078Z,8.20
2023-10-27T18:41:39.320Z,8.20
2023-10-27T18:44:08.668Z,8.20
2023-10-27T18:46:35.645Z,8.20
2023-10-27T18:49:02.664Z,8.20
2023-10-27T18:51:29.731Z,8.20
2023-10-27T18:53:56.687Z,8.20
2023-10-27T18:56:23.691Z,8.20
2023-10-27T18:58:50.655Z,8.10
2023-10-27T19:01:17.749Z,8.10
2023-10-27T19:03:48.750Z,8.10
2023-10-27T19:06:16.968Z,8.10
2023-10-27T19:08:45.113Z,8.10
2023-10-27T19:11:13.876Z,8.10
2023-10-27T19:13:42.426Z,8.10
2023-10-27T19:16:10.339Z,8.10
2023-10-27T19:18:39.300Z,8.10
2023-10-27T19:21:11.201Z,8.10
2023-10-27T19:23:38.674Z,8.10
2023-10-27T19:26:12.007Z,8.00
2023-10-27T19:28:39.260Z,8.00
2023-10-27T19:31:06.887Z,8.00
2023-10-27T19:33:34.142Z,8.00
2023-10-27T19:36:01.063Z,8.00
2023-10-27T19:38:28.237Z,8.00
2023-10-27T19:40:55.828Z,8.00
2023-10-27T19:43:23.000Z,8.00
2023-10-27T19:45:50.551Z,8.00
2023-10-27T19:48:17.727Z,8.00
2023-10-27T19:50:52.766Z,8.00
2023-10-27T19:53:20.139Z,8.00
2023-10-27T19:55:47.448Z,7.90
2023-10-27T19:58:14.563Z,8.00
2023-10-27T20:00:41.532Z,8.00
2023-10-27T20:03:11.395Z,8.00
2023-10-27T20:05:39.574Z,8.00
2023-10-27T20:08:08.558Z,7.90
2023-10-27T20:10:41.960Z,8.00
2023-10-27T20:13:11.718Z,8.00
2023-10-27T20:15:43.247Z,7.90
2023-10-27T20:18:11.736Z,8.00
2023-10-27T20:20:39.259Z,7.90
2023-10-27T20:23:13.064Z,8.00
2023-10-27T20:25:40.515Z,8.00
2023-10-27T20:28:10.553Z,8.00
2023-10-27T20:30:38.457Z,8.00
2023-10-27T20:33:05.445Z,8.00
2023-10-27T20:35:32.351Z,8.00
2023-10-27T20:37:59.934Z,7.90
2023-10-27T20:40:27.171Z,7.90
2023-10-27T20:42:54.487Z,8.00
2023-10-27T20:45:21.539Z,7.90
2023-10-27T20:47:48.968Z,7.90
2023-10-27T20:50:17.472Z,7.90
2023-10-27T20:52:45.344Z,7.90
2023-10-27T20:55:18.610Z,7.90
2023-10-27T20:57:46.942Z,7.90
2023-10-27T21:00:18.773Z,7.80
2023-10-27T21:02:45.834Z,7.80
2023-10-27T21:05:13.098Z,7.80
2023-10-27T21:07:44.092Z,7.80
2023-10-27T21:10:12.363Z,7.70
2023-10-27T21:12:39.485Z,7.70
2023-10-27T21:15:08.019Z,7.70
2023-10-27T21:17:35.633Z,7.70
2023-10-27T21:20:03.676Z,7.70
2023-10-27T21:22:30.811Z,7.60
2023-10-27T21:24:57.780Z,7.60
2023-10-27T21:27:24.733Z,7.60
2023-10-27T21:29:53.022Z,7.60
2023-10-27T21:32:19.997Z,7.60
2023-10-27T21:34:47.159Z,7.60
2023-10-27T21:37:14.463Z,7.60
2023-10-27T21:39:45.613Z,7.60
2023-10-27T21:42:13.758Z,7.60
2023-10-27T21:44:40.787Z,7.60
2023-10-27T21:47:09.220Z,7.60
2023-10-27T21:49:36.300Z,7.60
2023-10-27T21:52:06.376Z,7.60
2023-10-27T21:54:34.151Z,7.60
2023-10-27T21:57:01.051Z,7.50
2023-10-27T21:59:27.959Z,7.60
2023-10-27T22:01:55.819Z,7.60
2023-10-27T22:04:23.054Z,7.60
2023-10-27T22:06:50.170Z,7.50
2023-10-27T22:09:17.141Z,7.60
2023-10-27T22:11:46.013Z,7.60
2023-10-27T22:14:13.042Z,7.60
2023-10-27T22:16:40.944Z,7.50
2023-10-27T22:19:10.834Z,7.60
2023-10-27T22:21:37.793Z,7.60
2023-10-27T22:24:06.473Z,7.60
2023-10-27T22:26:33.763Z,7.60
2023-10-27T22:29:03.758Z,7.60
2023-10-27T22:31:31.018Z,7.60
2023-10-27T22:33:58.037Z,7.60
2023-10-27T22:36:25.451Z,7.60
2023-10-27T22:38:52.387Z,7.60
2023-10-27T22:41:19.395Z,7.60
2023-10-27T22:43:46.769Z,7.60
2023-10-27T22:46:13.820Z,7.60
2023-10-27T22:48:41.311Z,7.60
2023-10-27T22:51:12.872Z,7.60
2023-10-27T22:53:41.061Z,7.60
2023-10-27T22:56:09.464Z,7.60
2023-10-27T22:58:36.695Z,7.60
2023-10-27T23:01:05.412Z,7.60
2023-10-27T23:03:32.836Z,7.70
2023-10-27T23:06:11.149Z,7.60
2023-10-27T23:08:39.319Z,7.60
2023-10-27T23:11:13.396Z,7.60
2023-10-27T23:13:41.552Z,7.60
2023-10-27T23:16:09.306Z,7.60
2023-10-27T23:18:47.174Z,7.60
2023-10-27T23:21:14.399Z,7.60
2023-10-27T23:23:45.671Z,7.60
2023-10-27T23:26:12.706Z,7.60
2023-10-27T23:28:40.762Z,7.60
2023-10-27T23:31:09.573Z,7.60
2023-10-27T23:33:40.066Z,7.60
2023-10-27T23:36:11.173Z,7.60
2023-10-27T23:38:39.695Z,7.60
2023-10-27T23:41:07.035Z,7.60
2023-10-27T23:43:34.471Z,7.60
2023-10-27T23:46:02.264Z,7.60
2023-10-27T23:48:29.754Z,7.60
2023-10-27T23:50:58.012Z,7.60
2023-10-27T23:53:25.374Z,7.50
2023-10-27T23:55:52.719Z,7.50
2023-10-27T23:58:20.143Z,7.50
